createdAt,value
2019-05-14T00:01:05.282Z,7.04
2019-05-14T00:03:35.612Z,7.08
2019-05-14T00:06:05.902Z,7.08
2019-05-14T00:08:36.136Z,7.03
2019-05-14T00:11:06.853Z,7.03
2019-05-14T00:13:37.069Z,7.01
2019-05-14T00:16:07.377Z,7.01
2019-05-14T00:18:37.590Z,6.92
2019-05-14T00:21:08.326Z,6.92
2019-05-14T00:23:38.616Z,6.95
2019-05-14T00:26:09.016Z,6.96
2019-05-14T00:28:39.321Z,6.94
2019-05-14T00:31:11.952Z,6.99
2019-05-14T00:33:43.471Z,7.04
2019-05-14T00:36:13.789Z,6.98
2019-05-14T00:38:44.006Z,6.95
2019-05-14T00:41:14.346Z,6.96
2019-05-14T00:43:44.719Z,6.93
2019-05-14T00:46:15.005Z,6.95
2019-05-14T00:48:46.815Z,6.91
2019-05-14T00:51:17.484Z,6.90
2019-05-14T00:53:47.839Z,6.93
2019-05-14T00:56:18.073Z,6.87
2019-05-14T00:58:48.712Z,6.89
2019-05-14T01:01:21.421Z,6.88
2019-05-14T01:03:52.151Z,6.89
2019-05-14T01:06:23.022Z,6.85
2019-05-14T01:08:53.680Z,6.84
2019-05-14T01:11:24.353Z,6.80
2019-05-14T01:13:54.604Z,6.80
2019-05-14T01:16:24.956Z,6.78
2019-05-14T01:18:55.527Z,6.78
2019-05-14T01:21:25.812Z,6.82
2019-05-14T01:23:56.051Z,6.77
2019-05-14T01:26:26.489Z,6.77
2019-05-14T01:28:57.004Z,6.78
2019-05-14T01:31:27.234Z,6.79
2019-05-14T01:33:57.487Z,6.77
2019-05-14T01:36:27.710Z,6.75
2019-05-14T01:38:57.955Z,6.75
2019-05-14T01:41:28.586Z,6.74
2019-05-14T01:44:01.607Z,6.67
2019-05-14T01:46:31.839Z,6.68
2019-05-14T01:49:02.645Z,6.64
2019-05-14T01:51:32.881Z,6.65
2019-05-14T01:54:03.114Z,6.64
2019-05-14T01:56:33.453Z,6.60
2019-05-14T01:59:04.247Z,6.60
2019-05-14T02:01:34.914Z,6.60
2019-05-14T02:04:05.278Z,6.64
2019-05-14T02:06:35.957Z,6.65
2019-05-14T02:09:07.957Z,6.66
2019-05-14T02:11:38.590Z,6.69
2019-05-14T02:14:08.902Z,6.65
2019-05-14T02:16:42.027Z,6.67
2019-05-14T02:19:11.955Z,6.68
2019-05-14T02:21:42.665Z,6.71
2019-05-14T02:24:13.009Z,6.69
2019-05-14T02:26:44.750Z,6.69
2019-05-14T02:29:15.098Z,6.70
2019-05-14T02:31:45.680Z,6.68
2019-05-14T02:34:19.593Z,6.69
2019-05-14T02:36:49.626Z,6.66
2019-05-14T02:39:20.612Z,6.63
2019-05-14T02:41:50.833Z,6.70
2019-05-14T02:44:21.051Z,6.69
2019-05-14T02:46:51.275Z,6.69
2019-05-14T02:49:21.557Z,6.62
2019-05-14T02:51:51.870Z,6.63
2019-05-14T02:54:22.103Z,6.64
2019-05-14T02:56:52.327Z,6.63
2019-05-14T02:59:22.550Z,6.55
2019-05-14T03:01:52.799Z,6.58
2019-05-14T03:04:23.226Z,6.60
2019-05-14T03:06:53.439Z,6.60
2019-05-14T03:09:23.803Z,6.61
2019-05-14T03:11:54.037Z,6.63
2019-05-14T03:14:24.347Z,6.65
2019-05-14T03:16:54.637Z,6.67
2019-05-14T03:19:25.125Z,6.73
2019-05-14T03:21:55.941Z,6.71
2019-05-14T03:24:28.787Z,6.71
2019-05-14T03:26:58.839Z,6.82
2019-05-14T03:29:31.055Z,6.85
2019-05-14T03:32:03.685Z,6.87
2019-05-14T03:34:42.048Z,6.89
2019-05-14T03:37:12.989Z,6.91
2019-05-14T03:39:40.361Z,6.88
2019-05-14T03:42:11.104Z,6.86
2019-05-14T03:44:41.502Z,6.88
2019-05-14T03:47:11.728Z,6.89
2019-05-14T03:49:42.042Z,6.94
2019-05-14T03:52:14.350Z,6.96
2019-05-14T03:54:44.651Z,7.01
2019-05-14T03:57:15.488Z,7.03
2019-05-14T03:59:45.914Z,7.00
2019-05-14T04:02:19.889Z,7.04
2019-05-14T04:04:50.338Z,7.07
2019-05-14T04:07:22.991Z,7.11
2019-05-14T04:09:55.273Z,7.14
2019-05-14T04:12:29.418Z,7.17
2019-05-14T04:15:00.605Z,7.25
2019-05-14T04:17:41.829Z,7.31
2019-05-14T04:20:10.769Z,7.34
2019-05-14T04:22:42.218Z,7.37
2019-05-14T04:25:13.280Z,7.38
2019-05-14T04:27:49.116Z,7.38
2019-05-14T04:30:23.559Z,7.44
2019-05-14T04:32:53.229Z,7.45
2019-05-14T04:35:23.730Z,7.47
2019-05-14T04:37:54.186Z,7.58
2019-05-14T04:40:24.636Z,7.63
2019-05-14T04:42:59.060Z,7.68
2019-05-14T04:45:29.635Z,7.66
2019-05-14T04:48:00.552Z,7.71
2019-05-14T04:50:32.416Z,7.80
2019-05-14T04:53:02.724Z,7.81
2019-05-14T04:55:32.927Z,7.73
2019-05-14T04:58:04.493Z,7.76
2019-05-14T05:00:35.426Z,7.78
2019-05-14T05:03:08.534Z,7.82
2019-05-14T05:05:39.309Z,7.92
2019-05-14T05:08:13.963Z,8.05
2019-05-14T05:10:42.403Z,8.16
2019-05-14T05:13:12.973Z,8.41
2019-05-14T05:15:43.855Z,8.50
2019-05-14T05:18:18.420Z,8.70
2019-05-14T05:20:50.508Z,8.97
2019-05-14T05:23:20.007Z,9.22
2019-05-14T05:25:50.644Z,9.36
2019-05-14T05:28:21.323Z,9.54
2019-05-14T05:30:51.976Z,9.55
2019-05-14T05:33:22.814Z,9.70
2019-05-14T05:35:53.515Z,9.62
2019-05-14T05:38:23.817Z,9.62
2019-05-14T05:40:56.650Z,9.67
2019-05-14T05:43:28.397Z,9.88
2019-05-14T05:45:59.204Z,9.94
2019-05-14T05:48:30.242Z,10.04
2019-05-14T05:51:00.985Z,10.04
2019-05-14T05:53:33.248Z,10.10
2019-05-14T05:56:03.910Z,10.32
2019-05-14T05:58:34.194Z,10.40
2019-05-14T06:01:04.848Z,10.44
2019-05-14T06:03:35.481Z,10.49
2019-05-14T06:06:05.868Z,10.39
2019-05-14T06:08:38.782Z,10.16
2019-05-14T06:11:09.888Z,10.07
2019-05-14T06:13:40.712Z,10.07
2019-05-14T06:16:11.013Z,10.08
2019-05-14T06:18:43.290Z,10.02
2019-05-14T06:21:13.929Z,9.93
2019-05-14T06:23:44.727Z,9.94
2019-05-14T06:26:15.386Z,10.12
2019-05-14T06:28:48.422Z,10.10
2019-05-14T06:31:19.179Z,10.13
2019-05-14T06:33:49.784Z,10.15
2019-05-14T06:36:19.993Z,10.28
2019-05-14T06:38:50.242Z,10.38
2019-05-14T06:41:20.542Z,10.56
2019-05-14T06:43:51.166Z,10.71
2019-05-14T06:46:22.615Z,10.89
2019-05-14T06:48:52.992Z,11.18
2019-05-14T06:51:23.232Z,11.37
2019-05-14T06:53:53.479Z,11.46
2019-05-14T06:56:24.125Z,11.54
2019-05-14T06:58:54.520Z,11.65
2019-05-14T07:01:25.183Z,11.72
2019-05-14T07:03:55.493Z,11.75
2019-05-14T07:06:28.812Z,11.70
2019-05-14T07:08:58.932Z,11.64
2019-05-14T07:11:29.823Z,11.37
2019-05-14T07:14:00.114Z,11.07
2019-05-14T07:16:30.772Z,10.79
2019-05-14T07:19:01.450Z,10.70
2019-05-14T07:21:32.135Z,10.87
2019-05-14T07:24:02.901Z,10.94
2019-05-14T07:26:33.482Z,11.12
2019-05-14T07:29:03.969Z,11.26
2019-05-14T07:31:38.454Z,11.40
2019-05-14T07:34:09.328Z,11.46
2019-05-14T07:36:39.569Z,11.40
2019-05-14T07:39:13.180Z,11.39
2019-05-14T07:41:42.322Z,11.55
2019-05-14T07:44:12.553Z,11.69
2019-05-14T07:46:43.789Z,12.02
2019-05-14T07:49:14.154Z,12.23
2019-05-14T07:51:44.830Z,12.38
2019-05-14T07:54:15.450Z,12.41
2019-05-14T07:56:45.801Z,12.39
2019-05-14T07:59:18.066Z,12.35
2019-05-14T08:01:49.193Z,12.30
2019-05-14T08:04:20.092Z,12.13
2019-05-14T08:06:50.627Z,12.09
2019-05-14T08:09:21.223Z,12.42
2019-05-14T08:11:52.055Z,12.75
2019-05-14T08:14:22.718Z,12.97
2019-05-14T08:16:53.921Z,12.97
2019-05-14T08:19:27.886Z,12.78
2019-05-14T08:21:58.690Z,12.43
2019-05-14T08:24:30.668Z,11.97
2019-05-14T08:27:01.322Z,11.56
2019-05-14T08:29:37.530Z,11.54
2019-05-14T08:32:08.799Z,11.65
2019-05-14T08:34:39.406Z,11.98
2019-05-14T08:37:10.024Z,12.16
2019-05-14T08:39:40.453Z,11.98
2019-05-14T08:42:10.757Z,11.82
2019-05-14T08:44:41.065Z,11.71
2019-05-14T08:47:11.735Z,11.68
2019-05-14T08:49:46.660Z,11.80
2019-05-14T08:52:16.154Z,11.97
2019-05-14T08:54:49.215Z,12.02
2019-05-14T08:57:19.371Z,12.07
2019-05-14T08:59:52.816Z,12.07
2019-05-14T09:02:24.981Z,12.08
2019-05-14T09:04:55.441Z,12.22
2019-05-14T09:07:26.073Z,12.35
2019-05-14T09:09:59.896Z,12.40
2019-05-14T09:12:28.819Z,12.36
2019-05-14T09:14:59.505Z,12.32
2019-05-14T09:17:30.155Z,12.14
2019-05-14T09:20:06.413Z,11.93
2019-05-14T09:22:32.816Z,11.85
2019-05-14T09:25:04.278Z,11.72
2019-05-14T09:27:35.069Z,11.61
2019-05-14T09:30:09.664Z,11.66
2019-05-14T09:32:41.004Z,11.73
2019-05-14T09:35:11.323Z,11.80
2019-05-14T09:37:43.271Z,11.79
2019-05-14T09:40:13.882Z,11.65
2019-05-14T09:42:44.177Z,11.52
2019-05-14T09:45:15.488Z,11.26
2019-05-14T09:47:49.999Z,11.15
2019-05-14T09:50:23.157Z,10.91
2019-05-14T09:52:51.163Z,10.73
2019-05-14T09:55:21.823Z,10.80
2019-05-14T09:57:52.490Z,10.99
2019-05-14T10:00:23.701Z,11.05
2019-05-14T10:02:54.382Z,11.02
2019-05-14T10:05:25.200Z,11.05
2019-05-14T10:07:55.949Z,11.09
2019-05-14T10:10:30.034Z,11.19
2019-05-14T10:13:01.443Z,11.36
2019-05-14T10:15:30.610Z,11.32
2019-05-14T10:18:00.984Z,11.09
2019-05-14T10:20:40.156Z,10.84
2019-05-14T10:23:04.696Z,10.52
2019-05-14T10:25:35.502Z,10.29
2019-05-14T10:28:08.523Z,10.17
2019-05-14T10:30:39.013Z,10.19
2019-05-14T10:33:14.743Z,10.45
2019-05-14T10:35:41.671Z,10.82
2019-05-14T10:38:12.212Z,11.02
2019-05-14T10:40:42.595Z,11.06
2019-05-14T10:43:12.882Z,10.89
2019-05-14T10:45:49.409Z,10.57
2019-05-14T10:48:19.658Z,10.46
2019-05-14T10:50:59.038Z,10.49
2019-05-14T10:53:22.322Z,10.46
2019-05-14T10:55:52.688Z,10.42
2019-05-14T10:58:22.937Z,10.35
2019-05-14T11:00:53.171Z,10.53
2019-05-14T11:03:23.471Z,10.92
2019-05-14T11:05:53.774Z,11.42
2019-05-14T11:08:24.440Z,11.75
2019-05-14T11:10:55.048Z,11.77
2019-05-14T11:13:28.874Z,11.61
2019-05-14T11:15:59.515Z,11.58
2019-05-14T11:18:30.552Z,11.52
2019-05-14T11:21:18.674Z,11.12
2019-05-14T11:23:33.109Z,10.68
2019-05-14T11:26:03.827Z,10.45
2019-05-14T11:28:35.995Z,10.38
2019-05-14T11:31:09.027Z,10.30
2019-05-14T11:33:38.902Z,10.08
2019-05-14T11:36:09.727Z,9.87
2019-05-14T11:38:40.561Z,9.87
2019-05-14T11:41:11.295Z,9.98
2019-05-14T11:43:42.911Z,10.15
2019-05-14T11:46:15.142Z,10.32
2019-05-14T11:48:48.724Z,10.43
2019-05-14T11:51:28.385Z,10.47
2019-05-14T11:53:51.051Z,10.33
2019-05-14T11:56:21.619Z,10.27
2019-05-14T11:58:52.057Z,10.25
2019-05-14T12:01:22.485Z,10.36
2019-05-14T12:03:54.312Z,10.29
2019-05-14T12:06:27.333Z,10.24
2019-05-14T12:08:58.279Z,10.23
2019-05-14T12:11:29.237Z,10.27
2019-05-14T12:14:00.053Z,10.38
2019-05-14T12:16:30.465Z,10.55
2019-05-14T12:19:00.701Z,10.72
2019-05-14T12:21:31.462Z,10.80
2019-05-14T12:24:05.023Z,10.96
2019-05-14T12:26:34.497Z,10.75
2019-05-14T12:29:05.279Z,10.68
2019-05-14T12:31:38.429Z,10.63
2019-05-14T12:34:11.404Z,10.70
2019-05-14T12:36:42.946Z,10.81
2019-05-14T12:39:13.611Z,10.95
2019-05-14T12:41:43.954Z,10.78
2019-05-14T12:44:14.543Z,10.74
2019-05-14T12:46:44.834Z,10.54
2019-05-14T12:49:15.452Z,10.50
2019-05-14T12:51:46.114Z,10.43
2019-05-14T12:54:19.704Z,10.22
2019-05-14T12:56:50.596Z,10.01
2019-05-14T12:59:21.309Z,9.76
2019-05-14T13:01:51.712Z,9.54
2019-05-14T13:04:22.078Z,9.40
2019-05-14T13:06:52.305Z,9.25
2019-05-14T13:09:22.693Z,9.25
2019-05-14T13:11:53.056Z,9.20
2019-05-14T13:14:23.346Z,9.17
2019-05-14T13:16:54.637Z,9.22
2019-05-14T13:19:25.424Z,9.13
2019-05-14T13:22:12.237Z,9.07
2019-05-14T13:24:28.800Z,9.00
2019-05-14T13:26:59.709Z,9.00
2019-05-14T13:29:32.835Z,9.14
2019-05-14T13:32:03.083Z,9.17
2019-05-14T13:34:33.880Z,9.16
2019-05-14T13:37:05.779Z,9.04
2019-05-14T13:39:39.609Z,9.03
2019-05-14T13:42:11.691Z,9.08
2019-05-14T13:44:40.159Z,9.13
2019-05-14T13:47:14.583Z,9.09
2019-05-14T13:49:44.821Z,9.00
2019-05-14T13:52:15.446Z,9.02
2019-05-14T13:54:45.771Z,9.04
2019-05-14T13:57:19.414Z,9.11
2019-05-14T13:59:50.718Z,9.16
2019-05-14T14:02:20.934Z,9.13
2019-05-14T14:04:51.861Z,9.12
2019-05-14T14:07:22.070Z,9.11
2019-05-14T14:09:55.393Z,9.16
2019-05-14T14:12:31.791Z,9.15
2019-05-14T14:14:59.152Z,9.19
2019-05-14T14:17:29.407Z,9.14
2019-05-14T14:19:59.716Z,9.22
2019-05-14T14:22:30.620Z,9.09
2019-05-14T14:25:00.923Z,9.09
2019-05-14T14:27:31.930Z,9.19
2019-05-14T14:30:02.934Z,9.09
2019-05-14T14:32:33.579Z,9.11
2019-05-14T14:35:04.427Z,9.12
2019-05-14T14:37:34.883Z,9.14
2019-05-14T14:40:10.225Z,9.20
2019-05-14T14:42:40.904Z,9.04
2019-05-14T14:45:12.174Z,9.07
2019-05-14T14:47:42.493Z,8.97
2019-05-14T14:50:13.761Z,8.92
2019-05-14T14:52:44.475Z,8.92
2019-05-14T14:55:15.176Z,8.88
2019-05-14T14:57:54.145Z,8.96
2019-05-14T15:00:21.381Z,8.85
2019-05-14T15:02:52.064Z,8.73
2019-05-14T15:05:22.803Z,8.65
2019-05-14T15:07:53.496Z,8.68
2019-05-14T15:10:23.990Z,8.81
2019-05-14T15:12:54.619Z,8.79
2019-05-14T15:15:25.431Z,8.75
2019-05-14T15:17:59.367Z,8.64
2019-05-14T15:20:30.172Z,8.63
2019-05-14T15:23:00.911Z,8.67
2019-05-14T15:25:32.365Z,8.63
2019-05-14T15:28:02.740Z,8.42
2019-05-14T15:30:33.373Z,8.49
2019-05-14T15:33:03.683Z,8.51
2019-05-14T15:35:33.898Z,8.53
2019-05-14T15:38:04.572Z,8.48
2019-05-14T15:40:35.254Z,8.47
2019-05-14T15:43:09.956Z,8.38
2019-05-14T15:45:39.132Z,8.33
2019-05-14T15:48:09.427Z,8.40
2019-05-14T15:50:40.021Z,8.41
2019-05-14T15:53:11.319Z,8.36
2019-05-14T15:55:42.621Z,8.42
2019-05-14T15:58:12.857Z,8.48
2019-05-14T16:00:43.496Z,8.43
2019-05-14T16:03:14.335Z,8.43
2019-05-14T16:05:45.007Z,8.26
2019-05-14T16:08:22.195Z,8.30
2019-05-14T16:10:49.873Z,8.30
2019-05-14T16:13:22.131Z,8.22
2019-05-14T16:15:52.437Z,8.20
2019-05-14T16:18:23.034Z,8.22
2019-05-14T16:20:53.349Z,8.19
2019-05-14T16:23:23.574Z,8.22
2019-05-14T16:25:56.021Z,8.19
2019-05-14T16:28:28.667Z,8.30
2019-05-14T16:30:59.657Z,8.18
2019-05-14T16:33:30.101Z,8.15
2019-05-14T16:36:00.736Z,8.15
2019-05-14T16:38:31.271Z,8.12
2019-05-14T16:41:01.876Z,7.99
2019-05-14T16:43:32.772Z,8.16
2019-05-14T16:46:03.045Z,8.14
2019-05-14T16:48:33.300Z,8.01
2019-05-14T16:51:03.643Z,7.99
2019-05-14T16:53:34.902Z,7.93
2019-05-14T16:56:05.140Z,7.98
2019-05-14T16:58:35.571Z,8.02
2019-05-14T17:01:05.830Z,8.06
2019-05-14T17:03:39.249Z,8.06
2019-05-14T17:06:09.502Z,8.11
2019-05-14T17:08:39.810Z,8.09
2019-05-14T17:11:10.385Z,8.08
2019-05-14T17:13:40.696Z,8.27
2019-05-14T17:16:11.036Z,8.17
2019-05-14T17:18:41.287Z,8.19
2019-05-14T17:21:11.537Z,8.16
2019-05-14T17:23:41.793Z,8.18
2019-05-14T17:26:12.016Z,8.15
2019-05-14T17:28:42.333Z,8.18
2019-05-14T17:31:12.601Z,8.10
2019-05-14T17:33:42.934Z,8.14
2019-05-14T17:36:13.175Z,8.19
2019-05-14T17:38:43.446Z,8.17
2019-05-14T17:41:13.678Z,8.26
2019-05-14T17:43:44.285Z,8.25
2019-05-14T17:46:14.935Z,8.30
2019-05-14T17:48:45.258Z,8.26
2019-05-14T17:51:17.920Z,8.15
2019-05-14T17:53:48.072Z,8.11
2019-05-14T17:56:22.722Z,8.08
2019-05-14T17:58:51.195Z,8.10
2019-05-14T18:01:21.449Z,8.18
2019-05-14T18:03:53.888Z,8.14
2019-05-14T18:06:24.578Z,8.27
2019-05-14T18:08:55.300Z,8.22
2019-05-14T18:11:28.197Z,8.19
2019-05-14T18:13:59.132Z,8.18
2019-05-14T18:16:29.599Z,8.12
2019-05-14T18:18:59.818Z,8.17
2019-05-14T18:21:30.140Z,8.18
2019-05-14T18:24:00.735Z,8.18
2019-05-14T18:26:31.526Z,8.25
2019-05-14T18:29:04.507Z,8.30
2019-05-14T18:31:34.363Z,8.33
2019-05-14T18:34:05.130Z,8.43
2019-05-14T18:36:35.430Z,8.32
2019-05-14T18:39:09.263Z,8.08
2019-05-14T18:41:39.369Z,8.24
2019-05-14T18:44:09.969Z,8.18
2019-05-14T18:46:40.228Z,8.16
2019-05-14T18:49:12.037Z,8.19
2019-05-14T18:51:42.916Z,8.18
2019-05-14T18:54:15.248Z,8.24
2019-05-14T18:56:46.087Z,8.21
2019-05-14T18:59:21.477Z,8.30
2019-05-14T19:01:53.698Z,8.34
2019-05-14T19:04:23.397Z,8.23
2019-05-14T19:06:53.631Z,8.36
2019-05-14T19:09:23.851Z,8.38
2019-05-14T19:11:54.109Z,8.29
2019-05-14T19:14:29.297Z,8.32
2019-05-14T19:17:00.323Z,8.24
2019-05-14T19:19:30.938Z,8.32
2019-05-14T19:22:01.385Z,8.33
2019-05-14T19:24:32.059Z,8.29
2019-05-14T19:27:02.551Z,8.23
2019-05-14T19:29:32.997Z,8.19
2019-05-14T19:32:04.647Z,8.13
2019-05-14T19:34:34.925Z,8.18
2019-05-14T19:37:05.161Z,8.27
2019-05-14T19:39:38.628Z,8.40
2019-05-14T19:42:10.818Z,8.44
2019-05-14T19:44:41.274Z,8.37
2019-05-14T19:47:11.451Z,8.40
2019-05-14T19:49:42.183Z,8.24
2019-05-14T19:52:12.833Z,8.27
2019-05-14T19:54:43.618Z,8.24
2019-05-14T19:57:14.354Z,8.32
2019-05-14T19:59:44.675Z,8.26
2019-05-14T20:02:15.206Z,8.33
2019-05-14T20:04:45.884Z,8.29
2019-05-14T20:07:18.103Z,8.34
2019-05-14T20:09:49.002Z,8.43
2019-05-14T20:12:20.011Z,8.31
2019-05-14T20:14:50.816Z,8.26
2019-05-14T20:17:21.638Z,8.28
2019-05-14T20:19:52.305Z,8.36
2019-05-14T20:22:22.773Z,8.40
2019-05-14T20:24:53.279Z,8.34
2019-05-14T20:27:23.502Z,8.24
2019-05-14T20:29:53.750Z,8.32
2019-05-14T20:32:24.555Z,8.26
2019-05-14T20:34:58.487Z,8.40
2019-05-14T20:37:29.208Z,8.38
2019-05-14T20:40:00.395Z,8.40
2019-05-14T20:42:31.637Z,8.46
2019-05-14T20:45:03.103Z,8.39
2019-05-14T20:47:34.087Z,8.39
2019-05-14T20:50:08.918Z,8.26
2019-05-14T20:52:41.144Z,8.33
2019-05-14T20:55:12.306Z,8.37
2019-05-14T20:57:42.711Z,8.25
2019-05-14T21:00:13.772Z,8.18
2019-05-14T21:02:44.773Z,8.29
2019-05-14T21:05:16.041Z,8.23
2019-05-14T21:07:49.143Z,8.33
2019-05-14T21:10:20.915Z,8.28
2019-05-14T21:12:51.213Z,8.29
2019-05-14T21:15:21.494Z,8.30
2019-05-14T21:17:51.679Z,8.28
2019-05-14T21:20:22.054Z,8.29
2019-05-14T21:22:52.579Z,8.34
2019-05-14T21:25:23.847Z,8.33
2019-05-14T21:27:54.628Z,8.29
2019-05-14T21:30:25.340Z,8.29
2019-05-14T21:32:55.716Z,8.33
2019-05-14T21:35:25.928Z,8.36
2019-05-14T21:37:56.138Z,8.28
2019-05-14T21:40:29.076Z,8.33
2019-05-14T21:42:58.775Z,8.36
2019-05-14T21:45:29.027Z,8.48
2019-05-14T21:47:59.588Z,8.48
2019-05-14T21:50:29.928Z,8.41
2019-05-14T21:53:00.827Z,8.48
2019-05-14T21:55:31.161Z,8.44
2019-05-14T21:58:01.737Z,8.44
2019-05-14T22:00:42.151Z,8.43
2019-05-14T22:03:11.978Z,8.47
2019-05-14T22:05:42.258Z,8.49
2019-05-14T22:08:12.497Z,8.50
2019-05-14T22:10:42.872Z,8.47
2019-05-14T22:13:13.096Z,8.55
2019-05-14T22:15:43.420Z,8.49
2019-05-14T22:18:17.928Z,8.39
2019-05-14T22:20:48.265Z,8.45
2019-05-14T22:23:21.292Z,8.40
2019-05-14T22:25:51.211Z,8.43
2019-05-14T22:28:21.933Z,8.40
2019-05-14T22:30:52.312Z,8.41
2019-05-14T22:33:22.540Z,8.54
2019-05-14T22:35:53.108Z,8.50
2019-05-14T22:38:24.191Z,8.45
2019-05-14T22:40:55.042Z,8.45
2019-05-14T22:43:25.679Z,8.45
2019-05-14T22:45:58.899Z,8.51
2019-05-14T22:48:28.395Z,8.57
2019-05-14T22:50:59.320Z,8.65
2019-05-14T22:53:30.551Z,8.64
2019-05-14T22:56:01.479Z,8.56
2019-05-14T22:58:31.856Z,8.56
2019-05-14T23:01:14.296Z,8.58
2019-05-14T23:03:34.401Z,8.59
2019-05-14T23:06:05.058Z,8.58
2019-05-14T23:08:35.335Z,8.56
2019-05-14T23:11:05.552Z,8.64
2019-05-14T23:13:36.350Z,8.62
2019-05-14T23:16:08.241Z,8.63
2019-05-14T23:18:39.755Z,8.60
2019-05-14T23:21:10.359Z,8.55
2019-05-14T23:23:41.895Z,8.59
2019-05-14T23:26:12.551Z,8.64
2019-05-14T23:28:45.962Z,8.61
2019-05-14T23:31:15.568Z,8.65
2019-05-14T23:33:45.956Z,8.60
2019-05-14T23:36:18.317Z,8.60
2019-05-14T23:38:49.423Z,8.62
2019-05-14T23:41:19.687Z,8.60
2019-05-14T23:43:50.043Z,8.64
2019-05-14T23:46:20.269Z,8.74
2019-05-14T23:48:50.508Z,8.77
2019-05-14T23:51:21.073Z,8.75
2019-05-14T23:53:51.739Z,8.79
2019-05-14T23:56:22.369Z,8.85
2019-05-14T23:58:58.355Z,8.86
